Weather at Hansen Heliport

Public forecast

Using degrees Fahrenheit for public forecast. Weather courtesy of forecast.io.

Closest aviation weather report (METAR) to Hansen Heliport

Closest report is Griffiss International Airport, 12.5 nm (23.1 km) ENE. Retrieved 2020/12/01 16:53 UTC (8 minutes ago):

KRME 011653Z 26007KT 10SM SCT022 BKN037 08/04 A2942 RMK AO2 SLP961 T00830039

Closest aviation forecast (TAF) to Hansen Heliport

Closest forecast is Griffiss International Airport, 12.5 nm (23.1 km) ENE. Retrieved 2020/12/01 12:27 UTC (5 hours ago):

TAF KRME 011124Z 0112/0212 VRB04KT P6SM OVC023 FM011500 17008KT P6SM BKN030 OVC040 FM012000 20010G19KT 6SM -SHRA BR OVC025 FM020400 21008KT 5SM -SHSN OVC015 TEMPO 0207/0211 1SM -SN BR OVC007